Skip Navigation Links
NOAA logo - Click to go to the NOAA homepage
NOAA's National Weather Service
Alaska Aviation Weather Unit
  NWS logo - Click to go to the NWS homepage
Left Navbar Graphic     00 AKDT = 08 GMT

   
NOAA is celebrating 200 years of science, service, and stewardship. Visit the NOAA 200th celebration Web site to learn more.
USA.gov is the U.S. Government's official Web portal to all Federal, state and local government Web resources and services.
Facebook
NWS on Facebook

Important Change Regarding the AAWU Web Presence

 

Over the last several months, the AAWU has been working to navigate its webpages to a nationally supported server. Security, as well as other needs, have necessitated the change.  We have been given an extension for the site changeover while we diligently work at addressing feedback received. As of July 14, 2017, aawu.arh.noaa.gov will be discontinued. The new AAWU web address is weather.gov/aawu. It is now live and will run in-parallel with the old site until it is discontinued on July 14, 2017. Please continue to send any feedback or questions regarding the new webpages to nws.ar.aawu.webauthors@noaa.gov.  Thank you for your patience during this time of transition.
AAWU Home :: Display TAF Add Bookmark
TAF PAOT 240540Z 2406/2506  03008KT P6SM SCT100=

4313
FTAK31 PAFA 240540
TAFAOM
TAF

METAR PAOT 240253Z 31006KT 10SM CLR 08/03 A2971= METAR PAOT 240353Z 00000KT 10SM CLR 07/04 A2971= METAR PAOT 240453Z 00000KT 10SM CLR 06/03 A2970= METAR PAOT 240553Z 08007KT 10SM CLR 05/01 A2970= METAR PAOT 240653Z 08009KT 10SM CLR 05/00 A2970= METAR PAOT 240753Z 04004KT 10SM CLR 04/M01 A2970=
 Alaska TAF Map

NOAA's National Weather Service
Alaska Aviation Weather Unit
6930 Sand Lake Road
Anchorage, AK 99502-1845
Disclaimer
Credits
Glossary
Privacy Policy
About Us
Career Opportunities
Contact AAWU Internet Services Site last modified: April, 17th 2012